Time;durP1;ratioP1;P1;durP2;ratioP2;P2;SDS_P1;SDS_P2;PMS_P1;PMS_P2;Temp;Humidity;BMP_temperature;BMP_pressure;BME280_temperature;BME280_humidity;BME280_pressure;Samples;Min_cycle;Max_cycle;Signal;HPM_P1;HPM_P2
2022/06/23 00:01:34;;;;;;;6.75;6.05;;;19.90;99.90;;;;;;5041070;28;20213;-83
2022/06/23 00:04:02;;;;;;;6.35;5.82;;;19.90;99.90;;;;;;5033708;28;20210;-83
2022/06/23 00:06:39;;;;;;;6.47;5.75;;;20.00;99.90;;;;;;5053650;28;20223;-83
2022/06/23 00:09:31;;;;;;;8.20;7.40;;;19.90;99.90;;;;;;5053239;28;20225;-83
2022/06/23 00:12:00;;;;;;;7.10;6.53;;;19.90;99.90;;;;;;5052467;28;20289;-83
2022/06/23 00:14:29;;;;;;;6.25;5.70;;;19.90;99.90;;;;;;5053387;28;20201;-83
2022/06/23 00:17:15;;;;;;;9.73;7.45;;;19.90;99.90;;;;;;5052952;28;20200;-83
2022/06/23 00:19:44;;;;;;;7.45;6.65;;;19.90;99.90;;;;;;5053116;28;20210;-83
2022/06/23 00:22:14;;;;;;;6.55;6.05;;;19.90;99.90;;;;;;5053096;28;20229;-83
2022/06/23 00:24:43;;;;;;;6.38;5.75;;;19.90;99.90;;;;;;5053059;28;20281;-83
2022/06/23 00:27:16;;;;;;;6.05;5.55;;;19.80;99.90;;;;;;5052902;28;20261;-83
2022/06/23 00:29:47;;;;;;;6.28;5.70;;;19.90;99.90;;;;;;5053075;28;20205;-83
2022/06/23 00:32:16;;;;;;;6.30;5.72;;;19.80;99.90;;;;;;5033147;28;20232;-83
2022/06/23 00:34:51;;;;;;;7.30;6.70;;;19.80;99.90;;;;;;5033526;28;20206;-84
2022/06/23 00:37:21;;;;;;;6.60;6.00;;;19.80;99.90;;;;;;5033152;28;20403;-83
2022/06/23 00:39:53;;;;;;;6.95;6.38;;;19.90;99.90;;;;;;5032891;28;20210;-83
2022/06/23 00:42:25;;;;;;;7.10;6.35;;;19.80;99.90;;;;;;5032875;28;20280;-83
2022/06/23 00:45:00;;;;;;;7.75;5.57;;;19.90;99.90;;;;;;5033065;28;20223;-83
2022/06/23 00:47:40;;;;;;;5.88;5.38;;;19.80;99.90;;;;;;5047177;28;20347;-83
2022/06/23 00:50:21;;;;;;;6.20;5.70;;;19.90;99.90;;;;;;5053016;28;20281;-83
2022/06/23 00:52:53;;;;;;;5.85;5.35;;;19.90;99.90;;;;;;5052804;28;20225;-83
2022/06/23 00:55:39;;;;;;;7.07;5.65;;;19.90;99.90;;;;;;5052690;28;20189;-83
2022/06/23 00:58:19;;;;;;;5.97;5.47;;;19.90;99.90;;;;;;5052570;28;20273;-83
2022/06/23 01:00:53;;;;;;;5.57;5.10;;;19.90;99.90;;;;;;5033662;28;20301;-83
2022/06/23 01:03:28;;;;;;;5.38;4.97;;;20.00;99.90;;;;;;5052753;28;20252;-83
2022/06/23 01:06:05;;;;;;;6.43;5.85;;;20.00;99.90;;;;;;5052588;28;20267;-83
2022/06/23 01:08:42;;;;;;;5.57;5.07;;;20.00;99.90;;;;;;5052567;28;20266;-83
2022/06/23 01:11:14;;;;;;;6.35;5.70;;;20.00;99.90;;;;;;5055594;28;20198;-83
2022/06/23 01:13:48;;;;;;;6.25;5.65;;;20.00;99.90;;;;;;5056531;28;20212;-83
2022/06/23 01:16:22;;;;;;;5.90;5.15;;;20.00;99.90;;;;;;5056215;28;20202;-83
2022/06/23 01:18:53;;;;;;;5.95;4.93;;;20.00;99.90;;;;;;5056276;28;20212;-83
2022/06/23 01:21:24;;;;;;;5.97;5.40;;;20.00;99.90;;;;;;5055890;28;20224;-82
2022/06/23 01:24:04;;;;;;;16.67;6.28;;;20.10;99.90;;;;;;5056435;28;20226;-83
2022/06/23 01:27:04;;;;;;;5.90;5.35;;;20.00;99.90;;;;;;5056221;28;20288;-83
2022/06/23 01:29:39;;;;;;;5.63;5.15;;;20.00;99.90;;;;;;5056004;28;20288;-83
2022/06/23 01:32:18;;;;;;;5.72;5.22;;;20.00;99.90;;;;;;5055845;28;20221;-83
2022/06/23 01:34:52;;;;;;;4.85;4.55;;;19.90;99.90;;;;;;5056095;28;20268;-83
2022/06/23 01:37:25;;;;;;;6.45;5.88;;;19.90;99.90;;;;;;5056176;28;20285;-83
2022/06/23 01:40:06;;;;;;;5.07;4.72;;;19.90;99.90;;;;;;5055806;28;20281;-83
2022/06/23 01:42:40;;;;;;;6.25;5.65;;;19.80;99.90;;;;;;5035716;28;20260;-83
2022/06/23 01:45:19;;;;;;;5.35;4.85;;;19.80;99.90;;;;;;5035613;28;20270;-83
2022/06/23 01:47:53;;;;;;;4.88;4.47;;;19.70;99.90;;;;;;5041260;28;20214;-83
2022/06/23 01:50:37;;;;;;;5.95;5.45;;;19.70;99.90;;;;;;5055601;28;20291;-83
2022/06/23 01:53:23;;;;;;;5.60;5.10;;;19.60;99.90;;;;;;5055696;28;20233;-83
2022/06/23 01:56:17;;;;;;;7.65;6.15;;;19.60;99.90;;;;;;5055631;28;20260;-83
2022/06/23 01:58:58;;;;;;;6.47;5.88;;;19.60;99.90;;;;;;5035851;28;20209;-82
2022/06/23 02:01:35;;;;;;;5.40;5.05;;;19.60;99.90;;;;;;5035550;28;20225;-83
2022/06/23 02:04:11;;;;;;;5.32;4.88;;;19.50;99.90;;;;;;5035878;28;20202;-83
2022/06/23 02:06:46;;;;;;;6.50;5.57;;;19.50;99.90;;;;;;5054818;28;20204;-83
2022/06/23 02:09:22;;;;;;;7.50;5.45;;;19.50;99.90;;;;;;5055478;28;20202;-83
2022/06/23 02:11:53;;;;;;;5.60;5.10;;;19.50;99.90;;;;;;5055321;28;20233;-83
2022/06/23 02:14:43;;;;;;;6.53;5.93;;;19.50;99.90;;;;;;5055170;28;20225;-83
2022/06/23 02:17:25;;;;;;;4.85;4.45;;;19.50;99.90;;;;;;5055112;28;20281;-83
2022/06/23 02:19:55;;;;;;;5.15;4.68;;;19.40;99.90;;;;;;5055689;28;20272;-83
2022/06/23 02:22:28;;;;;;;4.53;4.15;;;19.50;99.90;;;;;;5053688;28;20233;-83
2022/06/23 02:25:06;;;;;;;4.65;4.25;;;19.50;99.90;;;;;;5055037;28;20209;-83
2022/06/23 02:27:43;;;;;;;4.63;3.70;;;19.50;99.90;;;;;;5055049;28;20284;-83
2022/06/23 02:30:16;;;;;;;6.47;4.43;;;19.40;99.90;;;;;;5055181;28;20257;-83
2022/06/23 02:32:59;;;;;;;3.83;3.47;;;19.40;99.90;;;;;;5054959;28;20305;-83
2022/06/23 02:35:33;;;;;;;4.63;3.60;;;19.50;99.90;;;;;;5054727;28;20240;-83
2022/06/23 02:38:05;;;;;;;4.13;3.83;;;19.50;99.90;;;;;;5054824;28;20296;-83
2022/06/23 02:40:38;;;;;;;4.35;4.05;;;19.50;99.90;;;;;;5054371;28;20232;-83
2022/06/23 02:43:29;;;;;;;4.55;4.07;;;19.50;99.90;;;;;;5054909;28;20246;-83
2022/06/23 02:46:32;;;;;;;4.85;4.18;;;19.40;99.90;;;;;;5054806;28;20232;-83
2022/06/23 02:49:38;;;;;;;3.65;3.42;;;19.40;99.90;;;;;;5054977;28;20197;-83
2022/06/23 02:52:32;;;;;;;4.18;3.78;;;19.40;99.90;;;;;;5034437;28;20222;-83
2022/06/23 02:55:19;;;;;;;4.03;3.67;;;19.30;99.90;;;;;;5034676;28;20198;-83
2022/06/23 02:57:51;;;;;;;5.15;4.28;;;19.40;99.90;;;;;;5034812;28;20202;-83
2022/06/23 03:00:24;;;;;;;4.82;4.38;;;19.40;99.90;;;;;;5034536;28;20258;-83
2022/06/23 03:03:06;;;;;;;6.15;4.10;;;19.40;99.90;;;;;;5034202;28;20313;-83
2022/06/23 03:05:51;;;;;;;6.35;4.95;;;19.40;99.90;;;;;;5034704;28;20206;-83
2022/06/23 03:08:27;;;;;;;5.43;5.00;;;19.30;99.90;;;;;;5034363;28;20202;-83
2022/06/23 03:11:00;;;;;;;5.50;5.00;;;19.30;99.90;;;;;;5034373;28;20269;-83
2022/06/23 03:13:40;;;;;;;5.07;4.57;;;19.30;99.90;;;;;;5034316;28;20301;-83
2022/06/23 03:16:18;;;;;;;5.00;4.53;;;19.20;99.90;;;;;;5034574;28;20198;-89
2022/06/23 03:18:54;;;;;;;5.43;4.57;;;19.20;99.90;;;;;;5052650;28;20197;-85
2022/06/23 03:21:28;;;;;;;4.47;4.15;;;19.10;99.90;;;;;;5053791;28;20226;-85
2022/06/23 03:24:02;;;;;;;4.90;4.47;;;19.20;99.90;;;;;;5054291;28;20280;-85
2022/06/23 03:26:38;;;;;;;4.22;3.83;;;19.20;99.90;;;;;;5053238;28;20197;-85
2022/06/23 03:29:16;;;;;;;9.88;5.22;;;19.20;99.90;;;;;;5054083;28;20206;-85
2022/06/23 03:31:52;;;;;;;5.18;4.68;;;19.10;99.90;;;;;;5053468;28;20221;-85
2022/06/23 03:34:24;;;;;;;4.97;4.13;;;19.10;99.90;;;;;;5053265;28;20197;-85
2022/06/23 03:36:59;;;;;;;5.45;4.95;;;19.10;99.90;;;;;;5053595;28;20206;-85
2022/06/23 03:42:24;;;;;;;5.05;4.65;;;19.20;99.90;;;;;;5053236;28;20222;-85
2022/06/23 03:44:58;;;;;;;4.47;4.18;;;19.30;99.90;;;;;;5053208;28;20202;-86
2022/06/23 03:47:37;;;;;;;4.70;4.40;;;19.40;99.90;;;;;;5053435;28;20212;-86
2022/06/23 03:50:16;;;;;;;4.32;3.92;;;19.40;99.90;;;;;;5053465;28;20205;-85
2022/06/23 03:52:50;;;;;;;4.47;4.18;;;19.50;99.90;;;;;;5053311;28;20217;-85
2022/06/23 03:55:23;;;;;;;11.00;4.47;;;19.50;99.90;;;;;;5051332;28;20229;-85
2022/06/23 03:57:57;;;;;;;4.65;4.25;;;19.60;99.90;;;;;;5035064;28;20254;-85
2022/06/23 04:00:34;;;;;;;3.92;3.63;;;19.60;99.90;;;;;;5053564;28;20301;-85
2022/06/23 04:03:14;;;;;;;4.70;4.30;;;19.70;99.90;;;;;;5053191;28;20300;-85
2022/06/23 04:06:15;;;;;;;5.50;4.30;;;19.70;99.90;;;;;;5053359;28;20201;-85
2022/06/23 04:08:56;;;;;;;4.78;4.20;;;19.80;99.90;;;;;;5053189;28;20240;-85
2022/06/23 04:11:46;;;;;;;3.92;3.63;;;19.80;99.90;;;;;;5052673;28;20292;-85
2022/06/23 04:14:20;;;;;;;5.07;4.60;;;19.90;99.90;;;;;;5052949;28;20233;-85
2022/06/23 04:16:54;;;;;;;4.50;4.10;;;19.90;99.90;;;;;;5052893;28;20210;-85
2022/06/23 04:19:26;;;;;;;4.22;3.83;;;19.90;99.90;;;;;;5052851;28;20216;-85
2022/06/23 04:22:05;;;;;;;6.78;4.05;;;19.90;99.90;;;;;;5033537;28;20226;-83
2022/06/23 04:24:38;;;;;;;4.47;4.07;;;20.00;99.90;;;;;;5047660;28;20280;-83
2022/06/23 04:27:15;;;;;;;4.75;4.35;;;20.00;99.90;;;;;;5052790;28;20198;-73
2022/06/23 04:29:44;;;;;;;3.65;3.35;;;20.10;99.90;;;;;;5053112;28;20291;-74
2022/06/23 04:32:17;;;;;;;4.90;4.50;;;20.20;99.90;;;;;;5052646;28;20281;-76
2022/06/23 04:34:51;;;;;;;5.13;4.53;;;20.30;99.90;;;;;;5052995;28;20304;-84
2022/06/23 04:37:36;;;;;;;5.15;4.75;;;20.30;99.90;;;;;;5053270;28;20200;-84
2022/06/23 04:40:17;;;;;;;4.10;3.78;;;20.50;99.90;;;;;;5053102;28;20277;-84
2022/06/23 04:42:49;;;;;;;5.07;4.32;;;20.60;99.90;;;;;;5050878;28;20300;-84
2022/06/23 04:45:41;;;;;;;4.40;4.00;;;20.60;99.90;;;;;;5054385;28;20254;-84
2022/06/23 04:48:17;;;;;;;4.28;3.95;;;20.70;99.90;;;;;;5057065;28;20193;-84
2022/06/23 04:50:50;;;;;;;4.25;3.95;;;20.80;99.90;;;;;;5056548;28;20208;-84
2022/06/23 04:53:29;;;;;;;5.30;3.95;;;20.90;99.90;;;;;;5056453;28;20217;-85
2022/06/23 04:56:13;;;;;;;5.32;4.22;;;21.00;99.90;;;;;;5056563;28;20269;-84
2022/06/23 04:58:47;;;;;;;4.45;4.05;;;21.10;99.90;;;;;;5056313;28;20206;-84
2022/06/23 05:01:18;;;;;;;8.55;4.90;;;21.20;99.90;;;;;;5056442;28;20293;-84
2022/06/23 05:03:52;;;;;;;4.07;3.78;;;21.30;99.90;;;;;;5056793;28;20305;-84
2022/06/23 05:06:32;;;;;;;4.20;3.80;;;21.40;99.90;;;;;;5056224;28;20200;-84
2022/06/23 05:09:05;;;;;;;4.00;3.70;;;21.40;99.90;;;;;;5056490;28;20380;-84
2022/06/23 05:11:41;;;;;;;4.88;4.03;;;21.40;99.90;;;;;;5056188;28;20236;-84
2022/06/23 05:14:20;;;;;;;4.03;3.63;;;21.50;99.90;;;;;;5055976;28;20202;-84
2022/06/23 05:16:51;;;;;;;3.88;3.58;;;21.50;99.90;;;;;;5056250;28;20276;-84
2022/06/23 05:19:26;;;;;;;4.15;3.85;;;21.50;99.90;;;;;;5037245;28;20209;-84
2022/06/23 05:21:57;;;;;;;4.20;3.80;;;21.50;99.90;;;;;;5040784;28;20291;-84
2022/06/23 05:24:29;;;;;;;3.60;3.33;;;21.60;99.90;;;;;;5056256;28;20229;-85
2022/06/23 05:27:03;;;;;;;4.47;4.10;;;21.60;99.90;;;;;;5056352;28;20243;-85
2022/06/23 05:29:36;;;;;;;3.75;3.45;;;21.60;99.90;;;;;;5055645;28;20206;-85
2022/06/23 05:32:12;;;;;;;3.90;3.53;;;21.70;99.90;;;;;;5056003;28;20300;-84
2022/06/23 05:34:48;;;;;;;3.40;3.10;;;21.70;99.90;;;;;;5054252;28;20201;-84
2022/06/23 05:37:21;;;;;;;4.30;3.90;;;21.80;99.90;;;;;;5055989;28;20304;-84
2022/06/23 05:39:54;;;;;;;3.85;3.55;;;21.80;99.90;;;;;;5055845;28;20213;-84
2022/06/23 05:42:27;;;;;;;4.45;4.07;;;21.90;99.90;;;;;;5055618;28;20221;-84
2022/06/23 05:45:00;;;;;;;3.95;3.65;;;22.00;99.90;;;;;;5056324;28;20208;-84
2022/06/23 05:47:32;;;;;;;3.95;3.65;;;22.00;99.90;;;;;;5055851;28;20244;-84
2022/06/23 05:50:05;;;;;;;3.60;3.30;;;22.00;99.90;;;;;;5055229;28;20225;-84
2022/06/23 05:52:41;;;;;;;3.83;3.45;;;22.00;99.90;;;;;;5055059;28;20294;-85
2022/06/23 05:55:18;;;;;;;3.22;2.97;;;22.00;99.90;;;;;;5055453;28;20205;-85
2022/06/23 05:57:55;;;;;;;4.03;3.72;;;22.00;99.90;;;;;;5055043;28;20264;-77
2022/06/23 06:00:28;;;;;;;3.30;3.10;;;22.10;99.90;;;;;;5047816;28;20285;-77
2022/06/23 06:03:02;;;;;;;3.53;3.22;;;22.20;99.90;;;;;;5055123;28;20217;-78
2022/06/23 06:05:34;;;;;;;4.18;3.30;;;22.30;99.90;;;;;;5055418;28;20202;-78
2022/06/23 06:08:06;;;;;;;3.60;3.08;;;22.40;99.90;;;;;;5054980;28;20208;-78
2022/06/23 06:10:36;;;;;;;4.75;3.72;;;22.50;99.90;;;;;;5054542;28;20194;-78
2022/06/23 06:13:14;;;;;;;3.75;3.40;;;22.60;99.90;;;;;;5054870;28;20268;-78
2022/06/23 06:15:48;;;;;;;4.25;3.08;;;22.60;99.90;;;;;;5054434;28;20266;-79
2022/06/23 06:18:22;;;;;;;3.38;3.05;;;22.70;99.90;;;;;;5055195;28;20198;-79
2022/06/23 06:20:52;;;;;;;8.05;3.42;;;22.80;99.90;;;;;;5054747;28;20205;-79
2022/06/23 06:23:30;;;;;;;3.60;3.30;;;22.90;99.90;;;;;;5054302;28;20276;-78
2022/06/23 06:25:58;;;;;;;3.42;3.13;;;22.90;99.90;;;;;;5052745;28;20276;-78
2022/06/23 06:28:32;;;;;;;3.90;3.60;;;23.00;99.90;;;;;;5054476;28;20224;-79
2022/06/23 06:31:07;;;;;;;3.15;2.95;;;23.10;99.90;;;;;;5054147;28;20208;-78
2022/06/23 06:33:46;;;;;;;3.17;2.97;;;23.20;99.90;;;;;;5054257;28;20233;-79
2022/06/23 06:36:39;;;;;;;5.35;4.07;;;23.30;99.90;;;;;;5054542;28;20205;-79
2022/06/23 06:39:11;;;;;;;4.97;4.30;;;23.30;99.90;;;;;;5040108;28;20205;-79
2022/06/23 06:41:43;;;;;;;4.30;3.70;;;23.30;99.90;;;;;;5054070;28;20232;-79
2022/06/23 06:44:16;;;;;;;3.90;3.58;;;23.30;99.90;;;;;;5054344;28;20228;-79
2022/06/23 06:46:46;;;;;;;4.05;3.70;;;23.30;99.90;;;;;;5054033;28;20280;-79
2022/06/23 06:49:18;;;;;;;3.60;3.30;;;23.30;99.90;;;;;;5053945;28;20248;-79
2022/06/23 06:51:47;;;;;;;4.90;4.13;;;23.30;99.90;;;;;;5054641;28;20285;-79
2022/06/23 06:54:19;;;;;;;3.80;3.50;;;23.40;99.90;;;;;;5054207;28;20241;-79
2022/06/23 06:56:52;;;;;;;4.10;3.70;;;23.40;99.90;;;;;;5054225;28;20252;-79
2022/06/23 06:59:25;;;;;;;3.88;3.58;;;23.40;99.90;;;;;;5054205;28;20198;-78
2022/06/23 07:01:58;;;;;;;4.32;3.85;;;23.60;99.90;;;;;;5053210;28;20264;-78
2022/06/23 07:04:30;;;;;;;6.05;4.15;;;23.70;99.90;;;;;;5053989;28;20218;-78
2022/06/23 07:07:04;;;;;;;5.90;3.88;;;23.80;99.90;;;;;;5052658;28;20281;-79
2022/06/23 07:09:37;;;;;;;3.30;3.00;;;24.10;99.90;;;;;;5048889;28;20220;-78
2022/06/23 07:12:11;;;;;;;3.72;3.20;;;24.20;99.90;;;;;;5054457;28;20237;-78
2022/06/23 07:14:49;;;;;;;3.63;3.22;;;24.50;99.90;;;;;;5054117;28;20281;-78
2022/06/23 07:17:56;;;;;;;4.57;3.90;;;24.80;99.90;;;;;;5052809;28;20248;-79
2022/06/23 07:20:29;;;;;;;3.55;3.25;;;25.40;99.90;;;;;;5047919;28;20265;-79
2022/06/23 07:23:02;;;;;;;3.45;3.17;;;26.20;99.90;;;;;;5053681;28;20222;-78
2022/06/23 07:25:35;;;;;;;2.95;2.75;;;26.80;99.90;;;;;;5053691;28;20278;-79
2022/06/23 07:28:09;;;;;;;3.42;3.03;;;26.60;99.90;;;;;;5054056;28;20214;-79
2022/06/23 07:30:45;;;;;;;3.17;2.97;;;27.00;99.90;;;;;;5053933;28;20285;-79
2022/06/23 07:33:19;;;;;;;4.90;2.83;;;27.50;99.90;;;;;;5054149;28;20221;-79
2022/06/23 07:35:52;;;;;;;3.35;3.00;;;28.20;99.90;;;;;;5053432;28;20278;-79
2022/06/23 07:38:28;;;;;;;3.15;2.92;;;29.30;99.90;;;;;;5054084;28;20281;-79
2022/06/23 07:41:02;;;;;;;2.92;2.65;;;30.20;99.90;;;;;;5053236;28;20285;-79
2022/06/23 07:43:35;;;;;;;4.32;2.85;;;30.80;99.90;;;;;;5053614;28;20233;-79
2022/06/23 07:46:05;;;;;;;5.10;2.75;;;32.10;99.90;;;;;;5053084;28;20288;-79
2022/06/23 07:48:35;;;;;;;3.05;2.50;;;33.70;99.90;;;;;;5036004;28;20226;-79
2022/06/23 07:51:06;;;;;;;2.80;2.60;;;34.50;96.80;;;;;;5053089;28;20236;-79
2022/06/23 07:53:37;;;;;;;3.42;2.45;;;34.40;95.90;;;;;;5053093;28;20307;-79
2022/06/23 07:56:06;;;;;;;2.22;2.13;;;36.00;93.60;;;;;;5053454;28;20199;-79
2022/06/23 07:58:40;;;;;;;2.70;2.50;;;36.90;89.50;;;;;;5053815;28;20205;-79
2022/06/23 08:01:15;;;;;;;2.85;2.63;;;36.40;88.20;;;;;;5053282;28;20261;-79
2022/06/23 08:03:52;;;;;;;2.78;2.58;;;36.60;86.80;;;;;;5052805;28;20268;-79
2022/06/23 08:06:21;;;;;;;3.08;2.88;;;36.30;82.50;;;;;;5053220;28;20204;-79
2022/06/23 08:08:54;;;;;;;3.35;3.00;;;36.20;83.20;;;;;;5053321;28;20273;-79
2022/06/23 08:14:36;;;;;;;3.08;2.88;;;36.50;79.90;;;;;;5052760;28;20189;-79
2022/06/23 08:17:12;;;;;;;3.50;3.17;;;35.10;83.50;;;;;;5053147;28;20201;-79
2022/06/23 08:19:47;;;;;;;3.47;2.70;;;34.50;83.50;;;;;;5052766;28;20197;-79
2022/06/23 08:22:19;;;;;;;3.08;2.88;;;34.00;84.60;;;;;;5052664;28;20272;-79
2022/06/23 08:24:50;;;;;;;2.88;2.67;;;33.60;87.20;;;;;;5052894;28;20225;-79
2022/06/23 08:27:42;;;;;;;4.72;4.25;;;33.30;88.00;;;;;;5053201;28;20190;-79
2022/06/23 08:30:14;;;;;;;3.90;3.50;;;32.70;87.80;;;;;;5033432;28;20281;-79
2022/06/23 08:32:47;;;;;;;3.75;3.38;;;32.10;90.00;;;;;;5032957;28;20313;-79
2022/06/23 08:35:21;;;;;;;5.38;2.42;;;31.50;90.60;;;;;;5043234;28;20190;-79
2022/06/23 08:37:56;;;;;;;3.70;3.22;;;30.70;91.00;;;;;;5052763;28;20267;-79
2022/06/23 08:40:34;;;;;;;8.02;3.67;;;30.20;91.40;;;;;;5052170;28;20201;-80
2022/06/23 08:43:15;;;;;;;3.38;3.10;;;29.60;91.90;;;;;;5053084;28;20252;-77
2022/06/23 08:45:50;;;;;;;5.07;3.65;;;29.50;93.10;;;;;;5052282;28;20304;-77
2022/06/23 08:48:26;;;;;;;3.45;3.08;;;30.50;92.70;;;;;;5052893;28;20221;-77
2022/06/23 08:51:01;;;;;;;3.28;3.08;;;30.90;91.40;;;;;;5052284;28;20284;-77
2022/06/23 08:53:36;;;;;;;5.03;3.83;;;30.70;91.30;;;;;;5052772;28;20221;-77
2022/06/23 08:56:12;;;;;;;8.23;3.42;;;30.40;91.60;;;;;;5052826;28;20201;-77
2022/06/23 08:58:46;;;;;;;3.28;3.05;;;29.90;92.00;;;;;;5052525;28;20224;-77
2022/06/23 09:01:19;;;;;;;2.97;2.78;;;29.40;92.70;;;;;;5052240;28;20225;-77
2022/06/23 09:03:54;;;;;;;3.88;3.47;;;29.10;93.80;;;;;;5032953;28;20289;-78
2022/06/23 09:06:36;;;;;;;3.10;2.90;;;28.60;93.90;;;;;;5045591;28;20224;-77
2022/06/23 09:09:21;;;;;;;6.40;3.10;;;28.40;95.50;;;;;;5052886;28;20273;-77
2022/06/23 09:12:01;;;;;;;3.38;2.92;;;29.30;96.50;;;;;;5051325;28;20277;-77
2022/06/23 09:14:53;;;;;;;3.83;3.53;;;31.30;93.30;;;;;;5052320;28;20193;-77
2022/06/23 09:17:37;;;;;;;3.83;2.92;;;33.10;91.60;;;;;;5052762;28;20205;-77
2022/06/23 09:20:36;;;;;;;3.05;2.72;;;34.70;90.40;;;;;;5037588;28;20193;-77
2022/06/23 09:23:26;;;;;;;2.85;2.65;;;36.10;86.40;;;;;;5052347;28;20217;-77
2022/06/23 09:26:04;;;;;;;2.97;2.67;;;36.50;79.20;;;;;;5052292;28;20221;-77
2022/06/23 09:28:47;;;;;;;2.55;2.40;;;36.60;77.90;;;;;;5052480;28;20213;-77
2022/06/23 09:31:21;;;;;;;3.35;2.80;;;36.60;77.90;;;;;;5053430;28;20211;-87
2022/06/23 09:34:16;;;;;;;2.75;2.55;;;36.30;77.30;;;;;;5056364;28;20287;-87
2022/06/23 09:37:22;;;;;;;2.80;2.60;;;36.10;79.40;;;;;;5055891;28;20205;-87
2022/06/23 09:40:11;;;;;;;3.20;2.90;;;35.20;76.90;;;;;;5055981;28;20300;-87
2022/06/23 09:43:09;;;;;;;5.00;3.17;;;34.40;79.40;;;;;;5055904;28;20232;-87
2022/06/23 09:45:52;;;;;;;3.08;2.85;;;35.30;80.00;;;;;;5055728;28;20249;-86
2022/06/23 09:48:39;;;;;;;3.20;2.90;;;36.40;78.90;;;;;;5055488;28;20201;-88
2022/06/23 09:51:34;;;;;;;2.67;2.08;;;37.60;73.50;;;;;;5055946;28;20212;-86
2022/06/23 09:54:37;;;;;;;2.80;2.60;;;38.90;71.80;;;;;;5055852;28;20209;-87
2022/06/23 09:57:35;;;;;;;4.63;2.47;;;39.50;67.80;;;;;;5052736;28;20208;-87
2022/06/23 10:00:09;;;;;;;2.55;2.38;;;39.30;65.40;;;;;;5055788;28;20205;-84
2022/06/23 10:02:54;;;;;;;4.10;2.90;;;39.70;66.40;;;;;;5055670;28;20263;-84
2022/06/23 10:05:45;;;;;;;2.58;2.38;;;39.50;62.40;;;;;;5055877;28;20304;-89
2022/06/23 10:08:29;;;;;;;3.22;2.60;;;39.60;63.50;;;;;;5055654;28;20297;-83
2022/06/23 10:11:18;;;;;;;2.50;2.40;;;39.20;62.60;;;;;;5055696;28;20285;-85
2022/06/23 10:14:06;;;;;;;7.57;2.55;;;38.70;62.20;;;;;;5054381;28;20265;-84
2022/06/23 10:16:57;;;;;;;2.65;2.42;;;37.80;62.60;;;;;;5054703;28;20227;-84
2022/06/23 10:19:39;;;;;;;3.10;2.70;;;37.50;65.00;;;;;;5054589;28;20288;-84
2022/06/23 10:22:21;;;;;;;2.75;2.55;;;37.10;62.00;;;;;;5054513;28;20288;-87
2022/06/23 10:25:20;;;;;;;2.75;2.55;;;36.70;64.40;;;;;;5052965;28;20199;-87
2022/06/23 10:28:19;;;;;;;2.80;2.60;;;36.10;63.80;;;;;;5055086;28;20301;-88
2022/06/23 10:30:56;;;;;;;2.80;2.60;;;34.60;65.40;;;;;;5054685;28;20204;-88
2022/06/23 10:33:57;;;;;;;2.97;2.78;;;33.90;67.80;;;;;;5054813;28;20217;-88
2022/06/23 10:36:57;;;;;;;3.45;2.72;;;33.00;71.20;;;;;;5055416;28;20234;-87
2022/06/23 10:40:00;;;;;;;3.67;3.28;;;33.40;73.60;;;;;;5051339;28;20264;-85
2022/06/23 10:43:01;;;;;;;3.50;2.65;;;34.60;71.90;;;;;;5053672;28;20225;-85
2022/06/23 10:45:43;;;;;;;2.78;2.58;;;35.40;67.50;;;;;;5054179;28;20221;-85
2022/06/23 10:48:32;;;;;;;3.05;2.85;;;35.20;65.30;;;;;;5054446;28;20285;-85
2022/06/23 10:51:10;;;;;;;2.50;2.30;;;35.00;67.80;;;;;;5054086;28;20224;-85
2022/06/23 10:54:02;;;;;;;2.25;2.10;;;35.10;64.10;;;;;;5035770;28;20240;-85
2022/06/23 10:56:48;;;;;;;2.42;2.22;;;34.80;64.80;;;;;;5049193;28;20281;-85
2022/06/23 10:59:46;;;;;;;3.45;2.83;;;34.10;64.20;;;;;;5054154;28;20209;-88
2022/06/23 11:02:56;;;;;;;2.88;2.63;;;33.60;65.60;;;;;;5053908;28;20311;-86
2022/06/23 11:05:51;;;;;;;2.72;2.53;;;33.10;67.60;;;;;;5012147;28;20286;-86
2022/06/23 11:08:49;;;;;;;3.22;2.50;;;32.40;67.20;;;;;;5052449;28;20202;-87
2022/06/23 11:11:36;;;;;;;2.50;2.30;;;32.60;66.80;;;;;;5054206;28;20279;-86
2022/06/23 11:14:15;;;;;;;3.35;2.50;;;32.60;68.20;;;;;;5053608;28;20293;-86
2022/06/23 11:16:57;;;;;;;2.83;2.40;;;33.40;67.30;;;;;;5053878;28;20236;-87
2022/06/23 11:19:37;;;;;;;2.72;2.40;;;34.60;65.10;;;;;;5034168;28;20206;-86
2022/06/23 11:22:28;;;;;;;2.58;2.38;;;35.50;62.80;;;;;;5044008;28;20296;-86
2022/06/23 11:25:08;;;;;;;2.45;2.25;;;36.30;61.40;;;;;;5054047;28;20216;-86
2022/06/23 11:27:43;;;;;;;2.72;2.47;;;37.10;64.90;;;;;;5039395;28;20304;-86
2022/06/23 11:30:20;;;;;;;2.50;2.30;;;37.30;57.10;;;;;;5053438;28;20193;-86
2022/06/23 11:33:02;;;;;;;3.58;2.70;;;37.60;60.70;;;;;;5053305;28;20252;-86
2022/06/23 11:35:44;;;;;;;2.13;1.92;;;37.70;57.80;;;;;;5053275;28;20197;-86
2022/06/23 11:38:46;;;;;;;2.15;2.05;;;37.10;58.80;;;;;;5050479;28;20197;-85
2022/06/23 11:41:34;;;;;;;2.47;2.28;;;36.30;58.50;;;;;;5053842;28;20238;-86
2022/06/23 11:44:16;;;;;;;3.05;2.15;;;36.00;58.90;;;;;;5053199;28;20300;-85
2022/06/23 11:46:51;;;;;;;2.38;2.17;;;35.50;57.80;;;;;;5053311;28;20221;-85
2022/06/23 11:49:38;;;;;;;1.92;1.83;;;35.00;58.10;;;;;;5053221;28;20201;-86
2022/06/23 11:52:23;;;;;;;3.17;1.70;;;34.30;59.70;;;;;;5053441;28;20261;-86
2022/06/23 11:55:18;;;;;;;2.65;2.45;;;34.00;60.60;;;;;;5052723;28;20201;-86
2022/06/23 11:58:13;;;;;;;2.28;2.08;;;33.80;59.50;;;;;;5052558;28;20262;-86
2022/06/23 12:00:54;;;;;;;11.98;2.70;;;33.50;61.80;;;;;;5050831;28;20213;-85
2022/06/23 12:03:35;;;;;;;2.38;2.20;;;33.30;61.90;;;;;;5052757;28;20256;-86
2022/06/23 12:06:15;;;;;;;3.03;1.95;;;33.60;62.80;;;;;;5052923;28;20226;-86
2022/06/23 12:08:58;;;;;;;3.78;1.73;;;33.80;60.70;;;;;;5053592;28;20200;-86
2022/06/23 12:11:26;;;;;;;2.78;2.08;;;33.90;59.30;;;;;;5053022;28;20201;-86
2022/06/23 12:13:58;;;;;;;1.92;1.83;;;33.90;59.30;;;;;;5052644;28;20221;-86
2022/06/23 12:16:27;;;;;;;2.30;2.10;;;34.20;57.60;;;;;;5053054;28;20449;-86
2022/06/23 12:18:59;;;;;;;2.70;2.38;;;34.90;58.10;;;;;;5052640;28;20197;-86
2022/06/23 12:21:37;;;;;;;5.10;2.33;;;35.30;59.10;;;;;;5051846;28;20224;-86
2022/06/23 12:24:16;;;;;;;2.80;2.50;;;35.50;57.10;;;;;;5049578;28;20284;-87
2022/06/23 12:26:49;;;;;;;2.85;2.33;;;35.50;55.40;;;;;;5052498;28;20317;-86
2022/06/23 12:29:21;;;;;;;2.00;1.90;;;35.50;58.30;;;;;;5052354;28;20300;-86
2022/06/23 12:31:57;;;;;;;2.58;2.38;;;35.60;54.90;;;;;;5052733;28;20229;-86
2022/06/23 12:34:34;;;;;;;2.45;2.13;;;35.20;56.70;;;;;;5050392;28;20193;-85
2022/06/23 12:37:14;;;;;;;2.58;2.38;;;34.90;55.40;;;;;;5052691;28;20208;-86
2022/06/23 12:39:50;;;;;;;2.78;2.53;;;34.60;57.20;;;;;;5053261;28;20208;-86
2022/06/23 12:42:24;;;;;;;2.58;1.92;;;34.10;58.60;;;;;;5052832;28;20316;-86
2022/06/23 12:45:09;;;;;;;3.63;3.10;;;33.90;57.70;;;;;;5052803;28;20205;-86
2022/06/23 12:47:49;;;;;;;2.55;2.35;;;33.70;58.00;;;;;;5052397;28;20304;-86
2022/06/23 12:50:34;;;;;;;2.30;2.10;;;33.70;57.90;;;;;;5052519;28;20236;-87
2022/06/23 12:53:20;;;;;;;2.53;2.33;;;34.00;56.80;;;;;;5052815;28;20229;-86
2022/06/23 12:56:01;;;;;;;2.33;2.13;;;34.20;56.50;;;;;;5052796;28;20203;-86
2022/06/23 12:58:35;;;;;;;3.00;1.85;;;34.20;55.60;;;;;;5053206;28;20236;-86
2022/06/23 13:01:14;;;;;;;3.55;2.58;;;34.20;54.20;;;;;;5051843;28;20292;-86
2022/06/23 13:03:53;;;;;;;2.63;2.40;;;34.30;54.10;;;;;;5051699;28;20235;-86
2022/06/23 13:06:34;;;;;;;2.17;2.08;;;34.40;54.20;;;;;;5054288;28;20275;-86
2022/06/23 13:09:14;;;;;;;2.20;2.10;;;34.40;54.00;;;;;;5056331;28;20211;-86
2022/06/23 13:11:54;;;;;;;2.47;2.28;;;34.50;53.90;;;;;;5055619;28;20228;-88
2022/06/23 13:14:29;;;;;;;2.13;2.03;;;34.50;53.90;;;;;;5056044;28;20201;-89
2022/06/23 13:17:03;;;;;;;3.30;2.38;;;34.60;54.30;;;;;;5045107;28;20207;-88
2022/06/23 13:19:39;;;;;;;3.03;2.65;;;34.50;53.80;;;;;;5055998;28;20267;-89
2022/06/23 13:22:28;;;;;;;2.63;2.40;;;34.50;53.70;;;;;;5055711;28;20213;-86
2022/06/23 13:24:58;;;;;;;3.45;2.50;;;34.70;55.30;;;;;;5056119;28;20200;-86
2022/06/23 13:27:30;;;;;;;2.55;2.35;;;34.90;55.60;;;;;;5056141;28;20251;-86
2022/06/23 13:30:04;;;;;;;2.22;2.10;;;35.00;55.30;;;;;;5055737;28;20280;-86
2022/06/23 13:32:38;;;;;;;2.25;2.05;;;34.80;55.20;;;;;;5055702;28;20241;-86
2022/06/23 13:35:16;;;;;;;3.85;2.10;;;34.30;55.00;;;;;;5055873;28;20246;-86
2022/06/23 13:37:50;;;;;;;2.55;1.90;;;34.10;56.10;;;;;;5045537;28;20224;-86
2022/06/23 13:40:33;;;;;;;2.28;2.10;;;34.00;56.50;;;;;;5055836;28;20196;-86
2022/06/23 13:43:07;;;;;;;3.53;1.75;;;34.20;55.70;;;;;;5055271;28;20379;-86
2022/06/23 13:45:41;;;;;;;2.20;2.00;;;34.10;54.90;;;;;;5055377;28;20225;-86
2022/06/23 13:48:19;;;;;;;2.53;2.05;;;33.70;54.80;;;;;;5055586;28;20209;-86
2022/06/23 13:50:57;;;;;;;2.95;2.65;;;33.50;54.50;;;;;;5055387;28;20247;-86